Time;durP1;ratioP1;P1;durP2;ratioP2;P2;SDS_P1;SDS_P2;PMS_P1;PMS_P2;Temp;Humidity;BMP_temperature;BMP_pressure;BME280_temperature;BME280_humidity;BME280_pressure;Samples;Min_cycle;Max_cycle;Signal;HPM_P1;HPM_P2
2022/03/08 00:06:15;;;;;;;15.35;4.68;;;;;;;;;;6303619;22;20097;-86
2022/03/08 00:13:19;;;;;;;14.47;4.93;;;;;;;;;;6300488;22;20109;-81
2022/03/08 00:15:46;;;;;;;10.48;4.78;;;;;;;;;;6314177;22;20019;-89
2022/03/08 00:18:17;;;;;;;10.07;5.13;;;;;;;;;;6314349;22;20092;-90
2022/03/08 00:20:44;;;;;;;16.48;5.32;;;;;;;;;;6316002;22;20455;-89
2022/03/08 00:23:12;;;;;;;12.07;4.97;;;;;;;;;;6313791;22;20034;-90
2022/03/08 00:25:40;;;;;;;9.80;4.82;;;;;;;;;;6315383;22;20015;-91
2022/03/08 00:28:09;;;;;;;9.68;4.38;;;;;;;;;;6314972;22;20395;-91
2022/03/08 00:30:38;;;;;;;10.93;5.10;;;;;;;;;;6313653;22;20053;-91
2022/03/08 00:33:07;;;;;;;12.90;5.65;;;;;;;;;;6315181;22;20102;-90
2022/03/08 00:35:35;;;;;;;10.85;5.10;;;;;;;;;;6288555;22;20023;-91
2022/03/08 00:38:03;;;;;;;9.70;4.70;;;;;;;;;;6313834;22;20022;-90
2022/03/08 00:40:31;;;;;;;11.02;5.43;;;;;;;;;;6312664;22;20085;-90
2022/03/08 00:43:01;;;;;;;11.00;5.05;;;;;;;;;;6288370;22;20458;-91
2022/03/08 00:45:29;;;;;;;12.68;5.05;;;;;;;;;;6302820;22;20027;-91
2022/03/08 00:47:57;;;;;;;11.40;5.45;;;;;;;;;;6313936;22;20113;-90
2022/03/08 00:50:27;;;;;;;13.02;5.50;;;;;;;;;;6313884;22;20023;-91
2022/03/08 00:52:56;;;;;;;15.30;5.10;;;;;;;;;;6279689;22;20039;-91
2022/03/08 00:55:27;;;;;;;13.15;5.55;;;;;;;;;;6313924;22;20023;-91
2022/03/08 00:57:55;;;;;;;13.32;5.55;;;;;;;;;;6313687;22;20031;-92
2022/03/08 01:00:25;;;;;;;10.20;4.60;;;;;;;;;;6312486;22;20097;-91
2022/03/08 01:02:53;;;;;;;12.50;4.78;;;;;;;;;;6314334;22;20098;-91
2022/03/08 01:05:21;;;;;;;13.18;4.95;;;;;;;;;;6262379;22;20098;-90
2022/03/08 01:07:51;;;;;;;11.70;4.97;;;;;;;;;;6287617;22;20023;-91
2022/03/08 01:10:23;;;;;;;11.43;4.38;;;;;;;;;;6287056;22;20019;-83
2022/03/08 01:12:54;;;;;;;9.55;4.65;;;;;;;;;;6283243;22;20070;-82
2022/03/08 01:15:24;;;;;;;10.63;5.13;;;;;;;;;;6283265;22;20019;-82
2022/03/08 01:17:52;;;;;;;12.70;4.72;;;;;;;;;;6280166;22;20018;-82
2022/03/08 01:20:21;;;;;;;11.93;4.50;;;;;;;;;;6283036;22;20026;-82
2022/03/08 01:22:49;;;;;;;11.85;5.65;;;;;;;;;;6310055;22;20023;-82
2022/03/08 01:25:20;;;;;;;10.60;5.30;;;;;;;;;;6281921;22;20019;-83
2022/03/08 01:27:48;;;;;;;10.93;4.38;;;;;;;;;;6309689;22;20023;-82
2022/03/08 01:30:17;;;;;;;12.00;5.10;;;;;;;;;;6281507;22;20029;-83
2022/03/08 01:32:44;;;;;;;13.43;4.93;;;;;;;;;;6311589;22;20022;-89
2022/03/08 01:35:15;;;;;;;11.82;5.20;;;;;;;;;;6311863;22;20026;-89
2022/03/08 01:37:43;;;;;;;12.88;4.75;;;;;;;;;;6284924;22;20726;-90
2022/03/08 01:40:14;;;;;;;13.02;5.80;;;;;;;;;;6312602;22;20043;-89
2022/03/08 01:42:48;;;;;;;10.15;4.72;;;;;;;;;;6270147;22;20030;-90
2022/03/08 01:45:21;;;;;;;13.35;5.40;;;;;;;;;;6244400;22;20447;-90
2022/03/08 01:47:51;;;;;;;12.07;5.45;;;;;;;;;;6255512;22;20024;-90
2022/03/08 01:50:18;;;;;;;10.10;4.40;;;;;;;;;;6281685;22;20039;-90
2022/03/08 01:52:46;;;;;;;8.60;4.05;;;;;;;;;;6255642;22;20431;-90
2022/03/08 01:55:15;;;;;;;11.68;4.38;;;;;;;;;;6254954;22;20024;-89
2022/03/08 01:57:44;;;;;;;10.30;4.93;;;;;;;;;;6281221;22;20179;-90
2022/03/08 02:00:16;;;;;;;8.75;4.68;;;;;;;;;;6279082;22;20015;-82
2022/03/08 02:02:45;;;;;;;12.18;4.80;;;;;;;;;;6244649;22;20030;-82
2022/03/08 02:05:13;;;;;;;13.80;4.63;;;;;;;;;;6278648;22;20051;-82
2022/03/08 02:07:41;;;;;;;12.05;4.57;;;;;;;;;;6277400;22;20023;-82
2022/03/08 02:10:09;;;;;;;15.52;5.07;;;;;;;;;;6278396;22;20020;-83
2022/03/08 02:12:37;;;;;;;7.63;4.22;;;;;;;;;;6256851;22;20070;-82
2022/03/08 02:15:25;;;;;;;10.93;4.63;;;;;;;;;;6247045;23;20108;-82
2022/03/08 02:17:55;;;;;;;8.27;4.60;;;;;;;;;;6249779;23;20031;-83
2022/03/08 02:20:22;;;;;;;11.07;4.43;;;;;;;;;;6250979;23;20428;-82
2022/03/08 02:22:51;;;;;;;10.25;4.53;;;;;;;;;;6251754;23;20020;-90
2022/03/08 02:25:19;;;;;;;12.95;5.00;;;;;;;;;;6251740;23;20020;-89
2022/03/08 02:27:49;;;;;;;9.70;4.03;;;;;;;;;;6216039;23;20116;-90
2022/03/08 02:30:18;;;;;;;10.23;4.80;;;;;;;;;;6251096;23;20027;-90
2022/03/08 02:32:47;;;;;;;8.70;3.80;;;;;;;;;;6252568;23;20030;-90
2022/03/08 02:35:17;;;;;;;8.02;4.30;;;;;;;;;;6252121;23;20016;-90
2022/03/08 02:37:48;;;;;;;8.93;4.32;;;;;;;;;;6251090;23;20031;-83
2022/03/08 02:40:19;;;;;;;9.90;4.60;;;;;;;;;;6235707;23;20339;-82
2022/03/08 02:42:46;;;;;;;7.82;3.95;;;;;;;;;;6241136;23;20088;-82
2022/03/08 02:45:16;;;;;;;9.65;3.97;;;;;;;;;;6251033;23;20027;-90
2022/03/08 02:47:45;;;;;;;8.45;4.25;;;;;;;;;;6252679;23;20850;-90
2022/03/08 02:50:14;;;;;;;8.32;4.05;;;;;;;;;;6252664;23;20024;-90
2022/03/08 02:52:45;;;;;;;9.27;4.68;;;;;;;;;;6252468;23;20103;-90
2022/03/08 02:55:13;;;;;;;9.02;4.13;;;;;;;;;;6252811;23;20016;-90
2022/03/08 02:57:42;;;;;;;10.23;4.40;;;;;;;;;;6251527;23;20019;-90
2022/03/08 03:00:15;;;;;;;10.02;4.30;;;;;;;;;;6251376;23;20016;-90
2022/03/08 03:02:43;;;;;;;7.63;3.80;;;;;;;;;;6252141;23;20038;-90
2022/03/08 03:05:11;;;;;;;6.93;3.58;;;;;;;;;;6251302;23;20012;-90
2022/03/08 03:07:39;;;;;;;8.63;3.97;;;;;;;;;;6225328;23;20025;-90
2022/03/08 03:10:09;;;;;;;9.27;3.80;;;;;;;;;;6251644;23;20042;-90
2022/03/08 03:12:36;;;;;;;9.45;4.22;;;;;;;;;;6270282;22;20093;-82
2022/03/08 03:15:08;;;;;;;10.43;4.40;;;;;;;;;;6275952;22;20087;-82
2022/03/08 03:17:37;;;;;;;6.35;3.60;;;;;;;;;;6279432;22;20090;-81
2022/03/08 03:20:08;;;;;;;9.95;4.22;;;;;;;;;;6279735;22;20025;-83
2022/03/08 03:22:37;;;;;;;9.52;3.85;;;;;;;;;;6279917;22;20019;-82
2022/03/08 03:25:06;;;;;;;7.38;3.92;;;;;;;;;;6278532;22;20182;-81
2022/03/08 03:27:35;;;;;;;10.95;4.65;;;;;;;;;;6278533;22;20726;-87
2022/03/08 03:30:07;;;;;;;10.73;4.25;;;;;;;;;;6279839;22;20016;-87
2022/03/08 03:32:35;;;;;;;9.45;4.53;;;;;;;;;;6280541;22;20590;-89
2022/03/08 03:35:04;;;;;;;8.20;3.78;;;;;;;;;;6281528;22;20011;-89
2022/03/08 03:37:33;;;;;;;9.38;4.00;;;;;;;;;;6282334;22;20098;-89
2022/03/08 03:40:01;;;;;;;13.43;4.20;;;;;;;;;;6281387;22;20316;-89
2022/03/08 03:42:28;;;;;;;8.73;4.53;;;;;;;;;;6281480;22;20024;-88
2022/03/08 03:44:56;;;;;;;9.20;4.40;;;;;;;;;;6240810;22;20025;-87
2022/03/08 03:47:24;;;;;;;9.30;3.92;;;;;;;;;;6280450;22;20011;-88
2022/03/08 03:49:52;;;;;;;8.57;3.75;;;;;;;;;;6278422;22;20285;-82
2022/03/08 03:52:20;;;;;;;7.93;3.80;;;;;;;;;;6279287;22;20030;-83
2022/03/08 03:54:48;;;;;;;9.82;4.25;;;;;;;;;;6268743;22;20011;-89
2022/03/08 03:57:16;;;;;;;8.25;3.50;;;;;;;;;;6281918;22;20490;-89
2022/03/08 03:59:45;;;;;;;8.88;3.70;;;;;;;;;;6253501;22;20065;-89
2022/03/08 04:02:12;;;;;;;9.07;4.10;;;;;;;;;;6282080;22;20046;-89
2022/03/08 04:04:40;;;;;;;7.07;3.53;;;;;;;;;;6282016;22;20451;-91
2022/03/08 04:07:08;;;;;;;10.30;3.60;;;;;;;;;;6282073;22;20054;-90
2022/03/08 04:09:37;;;;;;;9.93;3.92;;;;;;;;;;6245166;22;20047;-90
2022/03/08 04:12:05;;;;;;;10.05;3.95;;;;;;;;;;6254662;22;20016;-88
2022/03/08 04:14:32;;;;;;;7.47;3.53;;;;;;;;;;6253668;22;20047;-89
2022/03/08 04:17:02;;;;;;;6.47;3.38;;;;;;;;;;6281750;22;20057;-90
2022/03/08 04:19:30;;;;;;;8.77;3.97;;;;;;;;;;6282255;22;20024;-90
2022/03/08 04:21:58;;;;;;;7.95;3.40;;;;;;;;;;6281432;22;20019;-89
2022/03/08 04:24:27;;;;;;;7.75;3.90;;;;;;;;;;6280827;22;20078;-89
2022/03/08 04:26:54;;;;;;;12.35;4.13;;;;;;;;;;6281652;22;20066;-89
2022/03/08 04:29:22;;;;;;;9.77;3.67;;;;;;;;;;6281520;22;20019;-89
2022/03/08 04:31:50;;;;;;;9.00;3.58;;;;;;;;;;6281503;22;20020;-90
2022/03/08 04:34:18;;;;;;;8.80;3.95;;;;;;;;;;6281418;22;20109;-89
2022/03/08 04:36:46;;;;;;;12.90;3.80;;;;;;;;;;6281931;22;20031;-89
2022/03/08 04:39:14;;;;;;;5.93;3.30;;;;;;;;;;6280906;22;20015;-90
2022/03/08 04:41:42;;;;;;;8.65;3.83;;;;;;;;;;6271706;22;20714;-88
2022/03/08 04:44:10;;;;;;;6.82;3.75;;;;;;;;;;6279770;22;20073;-89
2022/03/08 04:46:42;;;;;;;10.35;3.60;;;;;;;;;;6280634;22;20019;-89
2022/03/08 04:49:10;;;;;;;6.30;3.55;;;;;;;;;;6281972;22;20346;-89
2022/03/08 04:51:38;;;;;;;7.80;3.60;;;;;;;;;;6281836;22;20102;-89
2022/03/08 04:54:06;;;;;;;6.88;3.72;;;;;;;;;;6281785;22;20019;-88
2022/03/08 04:56:34;;;;;;;8.10;3.20;;;;;;;;;;6282555;22;20416;-90
2022/03/08 04:59:03;;;;;;;9.57;3.55;;;;;;;;;;6256115;22;20099;-90
2022/03/08 05:01:30;;;;;;;7.95;3.67;;;;;;;;;;6282289;22;20023;-90
2022/03/08 05:03:58;;;;;;;6.63;3.55;;;;;;;;;;6281909;22;20016;-90
2022/03/08 05:06:30;;;;;;;8.10;3.60;;;;;;;;;;6255599;22;20046;-90
2022/03/08 05:08:57;;;;;;;8.13;4.00;;;;;;;;;;6254417;22;20393;-90
2022/03/08 05:11:24;;;;;;;7.78;3.65;;;;;;;;;;6278695;22;20019;-91
2022/03/08 05:13:52;;;;;;;8.95;4.22;;;;;;;;;;6244113;22;20034;-91
2022/03/08 05:16:21;;;;;;;6.63;3.35;;;;;;;;;;6281598;22;20077;-91
2022/03/08 05:18:48;;;;;;;8.40;3.83;;;;;;;;;;6281999;22;20090;-90
2022/03/08 05:21:16;;;;;;;7.30;3.65;;;;;;;;;;6282085;22;20104;-90
2022/03/08 05:23:44;;;;;;;7.47;3.30;;;;;;;;;;6281911;22;20027;-89
2022/03/08 05:26:12;;;;;;;7.55;3.20;;;;;;;;;;6281013;22;20023;-89
2022/03/08 05:28:42;;;;;;;8.02;2.97;;;;;;;;;;6280979;22;20023;-88
2022/03/08 05:31:10;;;;;;;8.40;2.45;;;;;;;;;;6280185;22;20103;-89
2022/03/08 05:33:39;;;;;;;8.07;3.00;;;;;;;;;;6280814;22;20061;-89
2022/03/08 05:36:06;;;;;;;9.07;3.75;;;;;;;;;;6281650;22;20722;-89
2022/03/08 05:38:34;;;;;;;7.25;3.60;;;;;;;;;;6281540;22;20015;-89
2022/03/08 05:41:02;;;;;;;9.65;3.65;;;;;;;;;;6280786;22;20026;-89
2022/03/08 05:43:30;;;;;;;6.28;3.53;;;;;;;;;;6271246;22;20368;-88
2022/03/08 05:45:58;;;;;;;7.45;3.00;;;;;;;;;;6279892;22;20492;-88
2022/03/08 05:48:27;;;;;;;9.95;4.00;;;;;;;;;;6279663;22;20034;-88
2022/03/08 05:50:56;;;;;;;9.43;3.42;;;;;;;;;;6244529;22;20027;-88
2022/03/08 05:53:24;;;;;;;5.72;3.03;;;;;;;;;;6282062;22;20123;-90
2022/03/08 05:55:52;;;;;;;7.25;3.15;;;;;;;;;;6220738;22;20043;-89
2022/03/08 05:58:20;;;;;;;7.78;3.30;;;;;;;;;;6282155;22;20023;-89
2022/03/08 06:00:48;;;;;;;6.28;3.50;;;;;;;;;;6281828;22;20047;-89
2022/03/08 06:03:17;;;;;;;8.95;3.17;;;;;;;;;;6282138;22;20081;-87
2022/03/08 06:05:44;;;;;;;8.35;3.65;;;;;;;;;;6281175;22;20646;-87
2022/03/08 06:08:14;;;;;;;7.25;3.65;;;;;;;;;;6280228;22;20171;-81
2022/03/08 06:10:42;;;;;;;9.25;4.10;;;;;;;;;;6278137;22;20024;-81
2022/03/08 06:13:10;;;;;;;8.40;4.43;;;;;;;;;;6280714;22;20024;-81
2022/03/08 06:15:38;;;;;;;7.22;3.58;;;;;;;;;;6279709;22;20026;-81
2022/03/08 06:18:06;;;;;;;6.82;3.15;;;;;;;;;;6278471;22;20523;-81
2022/03/08 06:20:34;;;;;;;7.55;3.95;;;;;;;;;;6279781;22;20024;-82
2022/03/08 06:23:02;;;;;;;9.13;3.03;;;;;;;;;;6277822;22;20026;-82
2022/03/08 06:25:30;;;;;;;7.57;3.50;;;;;;;;;;6277994;22;20812;-79
2022/03/08 06:27:58;;;;;;;8.20;3.20;;;;;;;;;;6278904;22;20031;-79
2022/03/08 06:30:26;;;;;;;9.40;4.10;;;;;;;;;;6279143;22;20031;-79
2022/03/08 06:32:54;;;;;;;8.43;3.90;;;;;;;;;;6276050;22;20099;-79
2022/03/08 06:35:22;;;;;;;9.65;4.28;;;;;;;;;;6277914;22;20150;-79
2022/03/08 06:37:51;;;;;;;7.88;2.97;;;;;;;;;;6279140;22;20031;-79
2022/03/08 06:40:18;;;;;;;7.53;3.70;;;;;;;;;;6277507;22;20020;-79
2022/03/08 06:42:46;;;;;;;8.38;3.75;;;;;;;;;;6268546;22;20343;-79
2022/03/08 06:45:14;;;;;;;8.75;4.07;;;;;;;;;;6275994;22;20015;-79
2022/03/08 06:47:42;;;;;;;9.23;3.85;;;;;;;;;;6277542;22;20138;-78
2022/03/08 06:50:11;;;;;;;9.82;4.07;;;;;;;;;;6277557;22;20106;-79
2022/03/08 06:52:41;;;;;;;7.40;3.42;;;;;;;;;;6279294;22;20118;-83
2022/03/08 06:55:10;;;;;;;10.40;4.20;;;;;;;;;;6278500;22;20075;-83
2022/03/08 06:57:38;;;;;;;7.30;3.92;;;;;;;;;;6280122;22;20042;-84
2022/03/08 07:00:07;;;;;;;12.57;4.03;;;;;;;;;;6278494;22;20027;-83
2022/03/08 07:02:34;;;;;;;9.15;4.22;;;;;;;;;;6238456;22;20023;-84
2022/03/08 07:05:03;;;;;;;7.53;3.85;;;;;;;;;;6252200;22;20026;-84
2022/03/08 07:07:30;;;;;;;10.20;4.38;;;;;;;;;;6276730;22;20535;-84
2022/03/08 07:09:58;;;;;;;8.98;4.32;;;;;;;;;;6279503;22;20020;-80
2022/03/08 07:12:26;;;;;;;7.85;3.92;;;;;;;;;;6278078;22;20073;-80
2022/03/08 07:14:54;;;;;;;9.38;4.03;;;;;;;;;;6277740;22;20422;-81
2022/03/08 07:17:22;;;;;;;9.15;3.97;;;;;;;;;;6277656;22;20043;-81
2022/03/08 07:19:50;;;;;;;9.60;3.80;;;;;;;;;;6277835;22;20020;-83
2022/03/08 07:22:18;;;;;;;6.88;3.83;;;;;;;;;;6280197;22;20035;-83
2022/03/08 07:24:46;;;;;;;8.00;3.35;;;;;;;;;;6275842;22;20059;-83
2022/03/08 07:27:15;;;;;;;7.97;3.83;;;;;;;;;;6277997;22;20530;-84
2022/03/08 07:29:44;;;;;;;9.60;4.22;;;;;;;;;;6276950;22;20054;-85
2022/03/08 07:32:10;;;;;;;10.20;3.58;;;;;;;;;;6272267;22;20102;-85
2022/03/08 07:34:38;;;;;;;8.25;3.80;;;;;;;;;;6275055;22;20043;-83
2022/03/08 07:37:07;;;;;;;6.32;3.38;;;;;;;;;;6277832;22;20110;-84
2022/03/08 07:39:34;;;;;;;7.28;3.90;;;;;;;;;;6271576;22;20415;-84
2022/03/08 07:42:03;;;;;;;12.90;4.25;;;;;;;;;;6241484;22;20122;-84
2022/03/08 07:44:30;;;;;;;7.93;4.10;;;;;;;;;;6273018;22;20016;-84
2022/03/08 07:46:59;;;;;;;6.53;3.70;;;;;;;;;;6272083;22;20030;-83
2022/03/08 07:49:26;;;;;;;12.02;3.60;;;;;;;;;;6272898;22;20494;-83
2022/03/08 07:51:54;;;;;;;7.35;3.08;;;;;;;;;;6276061;22;20023;-83
2022/03/08 07:54:22;;;;;;;9.32;3.72;;;;;;;;;;6275120;22;20820;-80
2022/03/08 07:56:50;;;;;;;15.88;3.42;;;;;;;;;;6273375;22;20095;-80
2022/03/08 07:59:19;;;;;;;8.80;3.70;;;;;;;;;;6275780;22;20024;-79
2022/03/08 08:01:46;;;;;;;9.52;3.65;;;;;;;;;;6273864;22;20107;-82
2022/03/08 08:04:14;;;;;;;6.68;3.15;;;;;;;;;;6275398;22;20023;-81
2022/03/08 08:06:43;;;;;;;7.75;3.92;;;;;;;;;;6277602;22;20015;-83
2022/03/08 08:09:12;;;;;;;6.22;2.72;;;;;;;;;;6274571;22;20023;-83
2022/03/08 08:11:40;;;;;;;8.05;3.15;;;;;;;;;;6274699;22;20043;-83
2022/03/08 08:14:09;;;;;;;8.60;3.25;;;;;;;;;;6274046;22;20043;-82
2022/03/08 08:16:36;;;;;;;8.20;3.60;;;;;;;;;;6272146;22;20019;-80
2022/03/08 08:19:04;;;;;;;8.07;3.03;;;;;;;;;;6275350;22;20020;-80
2022/03/08 08:21:32;;;;;;;5.45;2.85;;;;;;;;;;6276810;22;20023;-80
2022/03/08 08:24:01;;;;;;;5.70;2.92;;;;;;;;;;6273689;22;20020;-80
2022/03/08 08:26:28;;;;;;;5.82;3.08;;;;;;;;;;6272903;22;20090;-83
2022/03/08 08:28:56;;;;;;;8.27;3.60;;;;;;;;;;6271625;22;20101;-81
2022/03/08 08:31:26;;;;;;;7.00;3.22;;;;;;;;;;6272469;22;20019;-81
2022/03/08 08:33:55;;;;;;;7.38;2.72;;;;;;;;;;6275349;22;20055;-81
2022/03/08 08:36:22;;;;;;;6.05;3.22;;;;;;;;;;6249290;22;20089;-84
2022/03/08 08:38:50;;;;;;;7.22;3.10;;;;;;;;;;6274608;22;20020;-84
2022/03/08 08:41:18;;;;;;;5.55;2.95;;;;;;;;;;6275023;22;20023;-81
2022/03/08 08:43:46;;;;;;;4.97;2.70;;;;;;;;;;6273361;22;20200;-81
2022/03/08 08:46:14;;;;;;;7.13;2.33;;;;;;;;;;6271165;22;20853;-81
2022/03/08 08:48:42;;;;;;;6.38;2.40;;;;;;;;;;6271788;22;20020;-81
2022/03/08 08:51:10;;;;;;;4.75;2.10;;;;;;;;;;6273224;22;20074;-81
2022/03/08 08:53:38;;;;;;;5.95;2.78;;;;;;;;;;6273936;22;20065;-81
2022/03/08 08:56:06;;;;;;;5.32;2.25;;;;;;;;;;6270885;22;20027;-81
2022/03/08 08:58:34;;;;;;;5.20;2.42;;;;;;;;;;6273963;22;20020;-81
2022/03/08 09:01:02;;;;;;;6.28;2.90;;;;;;;;;;6272807;22;20023;-85
2022/03/08 09:03:30;;;;;;;9.20;2.85;;;;;;;;;;6270551;22;20019;-85
2022/03/08 09:05:58;;;;;;;7.60;3.10;;;;;;;;;;6271067;22;20020;-85
2022/03/08 09:08:26;;;;;;;6.65;2.60;;;;;;;;;;6274141;22;20025;-84
2022/03/08 09:10:58;;;;;;;9.80;2.30;;;;;;;;;;6272056;22;20130;-85
2022/03/08 09:13:26;;;;;;;8.45;2.58;;;;;;;;;;6272480;22;20030;-85
2022/03/08 09:15:54;;;;;;;7.68;2.05;;;;;;;;;;6273472;22;20020;-81
2022/03/08 09:18:22;;;;;;;7.88;2.72;;;;;;;;;;6274945;22;20050;-81
2022/03/08 09:20:50;;;;;;;5.97;2.72;;;;;;;;;;6247546;22;20106;-81
2022/03/08 09:23:19;;;;;;;7.68;2.67;;;;;;;;;;6273096;22;20109;-81
2022/03/08 09:25:46;;;;;;;4.90;2.60;;;;;;;;;;6272305;22;20015;-81
2022/03/08 09:28:15;;;;;;;6.45;2.35;;;;;;;;;;6275811;22;20019;-81
2022/03/08 09:30:44;;;;;;;4.53;2.28;;;;;;;;;;6270905;22;20078;-81
2022/03/08 09:33:12;;;;;;;6.93;2.40;;;;;;;;;;6271785;22;20459;-81
2022/03/08 09:35:44;;;;;;;4.97;2.75;;;;;;;;;;6273781;22;20094;-81
2022/03/08 09:38:13;;;;;;;4.63;2.47;;;;;;;;;;6273113;22;20023;-81
2022/03/08 09:40:41;;;;;;;4.05;2.03;;;;;;;;;;6272091;22;20714;-81
2022/03/08 09:43:09;;;;;;;4.68;2.05;;;;;;;;;;6272478;22;20030;-81
2022/03/08 09:45:36;;;;;;;5.43;2.22;;;;;;;;;;6272966;22;20077;-81
2022/03/08 09:48:04;;;;;;;4.28;2.20;;;;;;;;;;6270891;22;20015;-81
2022/03/08 09:50:33;;;;;;;6.50;2.20;;;;;;;;;;6274066;22;20027;-81
2022/03/08 09:53:02;;;;;;;6.43;2.40;;;;;;;;;;6271662;22;20050;-81
2022/03/08 09:55:28;;;;;;;5.10;2.50;;;;;;;;;;6273719;22;20016;-81
2022/03/08 09:57:56;;;;;;;7.03;2.70;;;;;;;;;;6270229;22;20469;-81
2022/03/08 10:00:24;;;;;;;4.35;2.03;;;;;;;;;;6272278;22;20092;-81
2022/03/08 10:02:54;;;;;;;4.35;2.13;;;;;;;;;;6271832;22;20020;-81
2022/03/08 10:05:28;;;;;;;5.78;2.53;;;;;;;;;;6272193;22;20110;-81
2022/03/08 10:08:19;;;;;;;5.55;2.38;;;;;;;;;;6270913;22;20096;-81
2022/03/08 10:10:58;;;;;;;5.05;2.65;;;;;;;;;;6273402;22;20869;-81
2022/03/08 10:13:47;;;;;;;6.78;3.33;;;;;;;;;;6241971;23;20036;-81
2022/03/08 10:16:25;;;;;;;6.43;2.80;;;;;;;;;;6240897;23;20016;-81
2022/03/08 10:18:57;;;;;;;8.05;3.05;;;;;;;;;;6243203;23;20070;-81
2022/03/08 10:21:26;;;;;;;6.80;2.63;;;;;;;;;;6242829;23;20492;-82
2022/03/08 10:23:55;;;;;;;5.13;2.47;;;;;;;;;;6241660;23;20050;-81
2022/03/08 10:26:23;;;;;;;6.38;2.90;;;;;;;;;;6241932;23;20020;-81
2022/03/08 10:28:53;;;;;;;5.88;2.53;;;;;;;;;;6244101;23;20020;-81
2022/03/08 10:31:21;;;;;;;6.50;3.00;;;;;;;;;;6242114;23;20030;-81
2022/03/08 10:33:50;;;;;;;6.03;2.83;;;;;;;;;;6242606;23;20044;-81
2022/03/08 10:36:22;;;;;;;5.38;2.53;;;;;;;;;;6240937;23;20031;-81
2022/03/08 10:39:11;;;;;;;5.18;2.17;;;;;;;;;;6244828;23;20047;-81
2022/03/08 10:41:47;;;;;;;4.30;1.98;;;;;;;;;;6245865;23;20016;-81
2022/03/08 10:44:18;;;;;;;6.00;2.40;;;;;;;;;;6243230;23;20027;-81
2022/03/08 10:47:03;;;;;;;3.72;2.08;;;;;;;;;;6243348;23;20450;-81
2022/03/08 10:49:57;;;;;;;4.68;1.90;;;;;;;;;;6245009;23;20012;-81
2022/03/08 10:52:30;;;;;;;8.55;2.72;;;;;;;;;;6244425;23;20031;-81
2022/03/08 10:55:13;;;;;;;8.38;2.58;;;;;;;;;;6244350;23;20088;-81
2022/03/08 10:57:50;;;;;;;3.95;2.10;;;;;;;;;;6244415;23;20023;-81
2022/03/08 11:00:20;;;;;;;6.55;2.33;;;;;;;;;;6242592;23;20430;-82
2022/03/08 11:02:58;;;;;;;6.15;1.90;;;;;;;;;;6243542;23;20016;-82
2022/03/08 11:05:32;;;;;;;4.85;2.03;;;;;;;;;;6208233;23;20035;-81
2022/03/08 11:08:00;;;;;;;4.78;2.22;;;;;;;;;;6243103;23;20027;-81
2022/03/08 11:10:30;;;;;;;4.00;1.65;;;;;;;;;;6245322;23;20099;-81
2022/03/08 11:13:00;;;;;;;5.40;2.08;;;;;;;;;;6244915;22;20099;-81
2022/03/08 11:15:29;;;;;;;3.85;1.58;;;;;;;;;;6245977;23;20020;-81
2022/03/08 11:17:58;;;;;;;5.88;2.17;;;;;;;;;;6245918;23;20043;-81
2022/03/08 11:20:28;;;;;;;4.53;2.22;;;;;;;;;;6245086;23;20116;-81
2022/03/08 11:22:56;;;;;;;3.53;1.70;;;;;;;;;;6235630;23;20078;-81
2022/03/08 11:25:31;;;;;;;3.63;1.70;;;;;;;;;;6243800;23;20020;-81
2022/03/08 11:28:15;;;;;;;6.07;2.08;;;;;;;;;;6222311;23;20098;-82
2022/03/08 11:30:46;;;;;;;5.40;2.30;;;;;;;;;;6241179;23;20019;-81
2022/03/08 11:33:33;;;;;;;5.38;2.13;;;;;;;;;;6243126;23;20086;-81
2022/03/08 11:36:04;;;;;;;4.43;1.88;;;;;;;;;;6242380;23;20074;-82
2022/03/08 11:38:33;;;;;;;6.13;1.80;;;;;;;;;;6233728;23;20032;-82
2022/03/08 11:41:01;;;;;;;6.03;2.20;;;;;;;;;;6244062;23;20069;-81
2022/03/08 11:43:43;;;;;;;4.75;2.00;;;;;;;;;;6242056;23;20099;-81
2022/03/08 11:46:17;;;;;;;6.07;2.22;;;;;;;;;;6242365;23;20019;-81
2022/03/08 11:48:56;;;;;;;4.22;2.05;;;;;;;;;;6244261;23;20024;-81
2022/03/08 11:51:27;;;;;;;3.53;1.70;;;;;;;;;;6243667;23;20086;-82
2022/03/08 11:54:05;;;;;;;4.05;2.17;;;;;;;;;;6242209;23;20043;-82
2022/03/08 11:56:54;;;;;;;5.30;2.63;;;;;;;;;;6240975;23;20115;-82
2022/03/08 11:59:23;;;;;;;5.28;2.10;;;;;;;;;;6243272;23;20490;-85
2022/03/08 12:01:54;;;;;;;4.15;2.00;;;;;;;;;;6244803;23;20091;-85
2022/03/08 12:04:22;;;;;;;4.72;2.10;;;;;;;;;;6241761;23;20099;-85
2022/03/08 12:06:54;;;;;;;3.63;1.60;;;;;;;;;;6240889;23;20012;-85
2022/03/08 12:09:23;;;;;;;5.25;2.22;;;;;;;;;;6245117;23;20098;-85
2022/03/08 12:12:12;;;;;;;4.55;1.70;;;;;;;;;;6255698;22;20066;-85
2022/03/08 12:14:43;;;;;;;4.20;2.33;;;;;;;;;;6274600;22;20016;-85
2022/03/08 12:17:20;;;;;;;3.38;1.35;;;;;;;;;;6274371;22;20106;-85
2022/03/08 12:19:49;;;;;;;2.35;1.23;;;;;;;;;;6273281;22;20027;-85
2022/03/08 12:22:22;;;;;;;3.25;1.30;;;;;;;;;;6273295;22;20020;-85
2022/03/08 12:24:53;;;;;;;4.88;1.38;;;;;;;;;;6275301;22;20411;-85
2022/03/08 12:27:22;;;;;;;2.60;1.40;;;;;;;;;;6275045;22;20122;-85
2022/03/08 12:30:05;;;;;;;2.75;1.20;;;;;;;;;;6274807;22;20023;-85
2022/03/08 12:32:40;;;;;;;3.88;1.30;;;;;;;;;;6273856;22;20020;-85
2022/03/08 12:35:25;;;;;;;2.63;1.02;;;;;;;;;;6272160;22;20022;-85
2022/03/08 12:37:57;;;;;;;4.47;1.50;;;;;;;;;;6274039;22;20026;-85
2022/03/08 12:40:29;;;;;;;4.32;1.40;;;;;;;;;;6273128;22;20015;-85
2022/03/08 12:43:22;;;;;;;2.35;1.27;;;;;;;;;;6262615;22;20015;-85
2022/03/08 12:45:50;;;;;;;4.22;1.10;;;;;;;;;;6261004;22;20143;-85
2022/03/08 12:48:21;;;;;;;2.83;1.27;;;;;;;;;;6273870;22;20423;-85
2022/03/08 12:50:54;;;;;;;4.05;1.42;;;;;;;;;;6274237;22;20186;-85
2022/03/08 12:53:25;;;;;;;2.90;1.67;;;;;;;;;;6272980;22;20482;-85
2022/03/08 12:55:57;;;;;;;4.47;1.70;;;;;;;;;;6272787;22;20070;-85
2022/03/08 12:58:32;;;;;;;3.08;1.55;;;;;;;;;;6246534;22;20042;-85
2022/03/08 13:01:11;;;;;;;5.28;1.40;;;;;;;;;;6263367;22;20343;-85
2022/03/08 13:03:46;;;;;;;3.30;1.40;;;;;;;;;;6271728;22;20016;-85
2022/03/08 13:06:14;;;;;;;3.53;1.70;;;;;;;;;;6273127;22;20016;-85
2022/03/08 13:08:43;;;;;;;5.60;1.80;;;;;;;;;;6273601;22;20073;-85
2022/03/08 13:11:13;;;;;;;2.67;1.17;;;;;;;;;;6270114;22;20027;-85
2022/03/08 13:13:51;;;;;;;3.65;1.77;;;;;;;;;;6271714;22;20019;-85
2022/03/08 13:16:22;;;;;;;4.45;1.70;;;;;;;;;;6273676;22;20015;-85
2022/03/08 13:18:50;;;;;;;3.08;1.42;;;;;;;;;;6271494;22;20038;-85
2022/03/08 13:21:18;;;;;;;3.53;1.58;;;;;;;;;;6273008;22;20482;-85
2022/03/08 13:23:48;;;;;;;3.30;1.38;;;;;;;;;;6272641;22;20019;-85
2022/03/08 13:29:05;;;;;;;3.60;1.50;;;;;;;;;;6271992;22;20020;-85
2022/03/08 13:31:33;;;;;;;4.03;1.65;;;;;;;;;;6245466;22;20031;-83
2022/03/08 13:34:01;;;;;;;3.88;1.67;;;;;;;;;;6261017;22;20024;-85
2022/03/08 13:36:32;;;;;;;5.00;1.50;;;;;;;;;;6275170;22;20403;-85
2022/03/08 13:39:01;;;;;;;6.63;2.28;;;;;;;;;;6274200;22;20123;-85
2022/03/08 13:41:30;;;;;;;4.05;1.35;;;;;;;;;;6273727;22;20020;-85
2022/03/08 13:44:05;;;;;;;3.22;1.30;;;;;;;;;;6273597;22;20497;-85
2022/03/08 13:46:36;;;;;;;3.30;1.75;;;;;;;;;;6274293;22;20054;-84
2022/03/08 13:49:10;;;;;;;2.78;1.20;;;;;;;;;;6271533;22;20093;-85
2022/03/08 13:51:40;;;;;;;4.30;1.67;;;;;;;;;;6274369;22;20073;-84
2022/03/08 13:54:09;;;;;;;2.63;1.33;;;;;;;;;;6274559;22;20178;-85
2022/03/08 13:56:51;;;;;;;4.80;1.88;;;;;;;;;;6272525;22;20020;-85
2022/03/08 13:59:35;;;;;;;5.05;1.60;;;;;;;;;;6272383;22;20103;-84
2022/03/08 14:02:04;;;;;;;4.10;1.70;;;;;;;;;;6274357;22;20051;-85
2022/03/08 14:04:34;;;;;;;7.32;1.88;;;;;;;;;;6247707;22;20015;-85
2022/03/08 14:07:04;;;;;;;4.05;1.45;;;;;;;;;;6272951;22;20107;-85
2022/03/08 14:09:33;;;;;;;6.93;1.55;;;;;;;;;;6275984;22;20023;-82
2022/03/08 14:12:03;;;;;;;4.15;2.03;;;;;;;;;;6276396;22;20024;-82
2022/03/08 14:14:31;;;;;;;3.38;1.58;;;;;;;;;;6279348;22;20046;-82
2022/03/08 14:16:59;;;;;;;3.30;1.60;;;;;;;;;;6275750;22;20065;-82
2022/03/08 14:19:45;;;;;;;4.38;1.83;;;;;;;;;;6276895;22;20046;-82
2022/03/08 14:22:13;;;;;;;5.07;2.03;;;;;;;;;;6279306;22;20043;-82
2022/03/08 14:24:41;;;;;;;3.50;1.60;;;;;;;;;;6250030;22;20115;-82
2022/03/08 14:27:11;;;;;;;5.60;1.67;;;;;;;;;;6276396;22;20028;-82
2022/03/08 14:29:41;;;;;;;4.78;1.80;;;;;;;;;;6276295;22;20020;-82
2022/03/08 14:32:11;;;;;;;3.83;1.20;;;;;;;;;;6274181;22;20486;-82
2022/03/08 14:34:40;;;;;;;3.65;1.50;;;;;;;;;;6275448;22;20042;-82
2022/03/08 14:37:11;;;;;;;3.67;1.60;;;;;;;;;;6276174;22;20091;-82
2022/03/08 14:39:39;;;;;;;3.45;1.50;;;;;;;;;;6276184;22;20039;-82
2022/03/08 14:42:09;;;;;;;3.42;1.40;;;;;;;;;;6279094;22;20470;-82
2022/03/08 14:44:38;;;;;;;3.08;1.30;;;;;;;;;;6277774;22;20095;-82
2022/03/08 14:47:09;;;;;;;3.45;1.45;;;;;;;;;;6276635;22;20141;-82
2022/03/08 14:49:37;;;;;;;2.75;1.33;;;;;;;;;;6276774;22;20023;-82
2022/03/08 14:52:05;;;;;;;4.07;2.10;;;;;;;;;;6275560;22;20043;-82
2022/03/08 14:54:32;;;;;;;4.75;1.75;;;;;;;;;;6277879;22;20141;-82
2022/03/08 14:57:00;;;;;;;4.15;1.65;;;;;;;;;;6278016;22;20434;-82
2022/03/08 14:59:28;;;;;;;3.72;1.60;;;;;;;;;;6276325;22;20023;-82
2022/03/08 15:01:57;;;;;;;4.65;1.80;;;;;;;;;;6273642;22;20019;-82
2022/03/08 15:04:25;;;;;;;4.18;1.70;;;;;;;;;;6277281;22;20471;-82
2022/03/08 15:06:52;;;;;;;3.78;1.45;;;;;;;;;;6278737;22;20020;-82
2022/03/08 15:09:20;;;;;;;4.00;1.50;;;;;;;;;;6274989;22;20066;-82